Time;durP1;ratioP1;P1;durP2;ratioP2;P2;SDS_P1;SDS_P2;PMS_P1;PMS_P2;Temp;Humidity;BMP_temperature;BMP_pressure;BME280_temperature;BME280_humidity;BME280_pressure;Samples;Min_cycle;Max_cycle;Signal;HPM_P1;HPM_P2
2021/04/16 00:00:14;;;;;;;;;;;;;;;;;;5036608;28;19969;-60
2021/04/16 00:02:40;;;;;;;;;;;;;;;;;;5053035;28;20426;-59
2021/04/16 00:05:06;;;;;;;;;;;;;;;;;;5049457;28;19988;-59
2021/04/16 00:07:32;;;;;;;;;;;;;;;;;;5039301;28;20058;-60
2021/04/16 00:09:58;;;;;;;;;;;;;;;;;;5051202;28;19955;-59
2021/04/16 00:12:24;;;;;;;;;;;;;;;;;;5049055;28;19904;-59
2021/04/16 00:14:50;;;;;;;;;;;;;;;;;;5042896;28;19905;-59
2021/04/16 00:17:15;;;;;;;;;;;;;;;;;;5032863;28;19905;-60
2021/04/16 00:19:41;;;;;;;;;;;;;;;;;;5033052;28;20359;-59
2021/04/16 00:22:07;;;;;;;;;;;;;;;;;;5032823;28;19912;-59
2021/04/16 00:24:33;;;;;;;;;;;;;;;;;;5033308;28;19905;-59
2021/04/16 00:27:00;;;;;;;;;;;;;;;;;;5032801;28;19905;-59
2021/04/16 00:29:25;;;;;;;;;;;;;;;;;;5033048;28;19909;-59
2021/04/16 00:31:51;;;;;;;;;;;;;;;;;;5032570;28;20054;-59
2021/04/16 00:34:17;;;;;;;;;;;;;;;;;;5032759;28;20430;-60
2021/04/16 00:36:43;;;;;;;;;;;;;;;;;;5052268;28;20362;-58
2021/04/16 00:39:09;;;;;;;;;;;;;;;;;;5052381;28;19911;-59
2021/04/16 00:41:35;;;;;;;;;;;;;;;;;;5052548;28;19905;-59
2021/04/16 00:44:01;;;;;;;;;;;;;;;;;;5052333;28;19909;-59
2021/04/16 00:46:28;;;;;;;;;;;;;;;;;;5036860;28;19905;-59
2021/04/16 00:48:54;;;;;;;;;;;;;;;;;;5032113;28;20020;-59
2021/04/16 00:51:20;;;;;;;;;;;;;;;;;;5031590;28;20379;-59
2021/04/16 00:53:46;;;;;;;;;;;;;;;;;;5031372;28;20367;-59
2021/04/16 00:56:11;;;;;;;;;;;;;;;;;;5043124;28;19912;-60
2021/04/16 00:58:37;;;;;;;;;;;;;;;;;;5034078;28;19959;-59
2021/04/16 01:01:03;;;;;;;;;;;;;;;;;;5031424;28;19950;-59
2021/04/16 01:03:29;;;;;;;;;;;;;;;;;;5032178;28;19958;-59
2021/04/16 01:05:55;;;;;;;;;;;;;;;;;;5043959;28;19995;-59
2021/04/16 01:08:21;;;;;;;;;;;;;;;;;;5031809;28;20486;-61
2021/04/16 01:10:47;;;;;;;;;;;;;;;;;;5031127;28;20042;-59
2021/04/16 01:13:13;;;;;;;;;;;;;;;;;;5031540;28;19944;-59
2021/04/16 01:15:40;;;;;;;;;;;;;;;;;;5030830;28;19999;-59
2021/04/16 01:18:06;;;;;;;;;;;;;;;;;;5031510;28;19909;-59
2021/04/16 01:20:32;;;;;;;;;;;;;;;;;;5031056;28;19916;-59
2021/04/16 01:22:58;;;;;;;;;;;;;;;;;;5031727;28;19909;-59
2021/04/16 01:25:24;;;;;;;;;;;;;;;;;;5031110;28;19917;-59
2021/04/16 01:27:50;;;;;;;;;;;;;;;;;;5033119;28;19985;-58
2021/04/16 01:30:16;;;;;;;;;;;;;;;;;;5034472;28;20275;-59
2021/04/16 01:32:42;;;;;;;;;;;;;;;;;;5034454;28;20375;-58
2021/04/16 01:35:07;;;;;;;;;;;;;;;;;;5034645;28;19912;-59
2021/04/16 01:37:33;;;;;;;;;;;;;;;;;;5034213;28;19975;-60
2021/04/16 01:39:59;;;;;;;;;;;;;;;;;;5034557;28;19928;-57
2021/04/16 01:42:25;;;;;;;;;;;;;;;;;;5034615;28;19909;-58
2021/04/16 01:44:51;;;;;;;;;;;;;;;;;;5034223;28;19909;-58
2021/04/16 01:47:17;;;;;;;;;;;;;;;;;;5042503;28;19908;-59
2021/04/16 01:49:43;;;;;;;;;;;;;;;;;;5031362;28;666524;-57
2021/04/16 01:52:09;;;;;;;;;;;;;;;;;;5055291;28;19904;-59
2021/04/16 01:54:35;;;;;;;;;;;;;;;;;;5055499;28;19964;-59
2021/04/16 01:57:01;;;;;;;;;;;;;;;;;;5048991;28;20375;-58
2021/04/16 01:59:27;;;;;;;;;;;;;;;;;;5047567;28;19909;-59
2021/04/16 02:01:53;;;;;;;;;;;;;;;;;;5055419;28;20373;-58
2021/04/16 02:04:18;;;;;;;;;;;;;;;;;;5055138;28;19911;-58
2021/04/16 02:06:44;;;;;;;;;;;;;;;;;;5055143;28;19916;-59
2021/04/16 02:09:10;;;;;;;;;;;;;;;;;;5039566;28;19917;-59
2021/04/16 02:11:36;;;;;;;;;;;;;;;;;;5038687;28;20270;-59
2021/04/16 02:14:02;;;;;;;;;;;;;;;;;;5042232;28;19905;-59
2021/04/16 02:16:28;;;;;;;;;;;;;;;;;;5048909;28;19945;-58
2021/04/16 02:18:54;;;;;;;;;;;;;;;;;;5046762;28;20180;-59
2021/04/16 02:21:20;;;;;;;;;;;;;;;;;;5054970;28;19944;-58
2021/04/16 02:23:46;;;;;;;;;;;;;;;;;;5054783;28;19911;-58
2021/04/16 02:26:12;;;;;;;;;;;;;;;;;;5040507;28;19906;-58
2021/04/16 02:28:38;;;;;;;;;;;;;;;;;;5055033;28;19923;-59
2021/04/16 02:31:04;;;;;;;;;;;;;;;;;;5054559;28;19995;-59
2021/04/16 02:33:29;;;;;;;;;;;;;;;;;;5054986;28;20402;-62
2021/04/16 02:35:55;;;;;;;;;;;;;;;;;;5054540;28;19999;-59
2021/04/16 02:38:21;;;;;;;;;;;;;;;;;;5051754;28;19996;-58
2021/04/16 02:40:47;;;;;;;;;;;;;;;;;;5034553;28;19988;-59
2021/04/16 02:43:13;;;;;;;;;;;;;;;;;;5038721;28;19905;-58
2021/04/16 02:45:39;;;;;;;;;;;;;;;;;;5047432;28;19905;-59
2021/04/16 02:48:05;;;;;;;;;;;;;;;;;;5042053;28;19978;-58
2021/04/16 02:50:31;;;;;;;;;;;;;;;;;;5052259;28;19921;-58
2021/04/16 02:52:57;;;;;;;;;;;;;;;;;;5054254;28;20446;-59
2021/04/16 02:55:23;;;;;;;;;;;;;;;;;;5052119;28;19905;-58
2021/04/16 02:57:49;;;;;;;;;;;;;;;;;;5042585;28;19928;-59
2021/04/16 03:00:15;;;;;;;;;;;;;;;;;;5054637;28;20339;-57
2021/04/16 03:02:40;;;;;;;;;;;;;;;;;;5048032;28;20441;-60
2021/04/16 03:05:06;;;;;;;;;;;;;;;;;;5046942;28;21146;-59
2021/04/16 03:07:32;;;;;;;;;;;;;;;;;;5054419;28;19917;-58
2021/04/16 03:09:58;;;;;;;;;;;;;;;;;;5044391;28;19911;-59
2021/04/16 03:12:24;;;;;;;;;;;;;;;;;;5048500;28;20063;-59
2021/04/16 03:14:50;;;;;;;;;;;;;;;;;;5044711;28;19999;-58
2021/04/16 03:17:16;;;;;;;;;;;;;;;;;;5057307;28;19951;-60
2021/04/16 03:19:42;;;;;;;;;;;;;;;;;;5056691;28;20367;-58
2021/04/16 03:22:08;;;;;;;;;;;;;;;;;;5057900;28;20295;-69
2021/04/16 03:24:34;;;;;;;;;;;;;;;;;;5057431;28;19911;-61
2021/04/16 03:27:00;;;;;;;;;;;;;;;;;;5057929;28;19905;-60
2021/04/16 03:29:25;;;;;;;;;;;;;;;;;;5057749;28;20023;-62
2021/04/16 03:31:51;;;;;;;;;;;;;;;;;;5036617;28;19927;-60
2021/04/16 03:34:17;;;;;;;;;;;;;;;;;;5051803;28;20287;-60
2021/04/16 03:36:43;;;;;;;;;;;;;;;;;;5053642;28;19904;-58
2021/04/16 03:39:09;;;;;;;;;;;;;;;;;;5053241;28;20335;-58
2021/04/16 03:41:35;;;;;;;;;;;;;;;;;;5053512;28;19912;-58
2021/04/16 03:44:01;;;;;;;;;;;;;;;;;;5045722;28;19909;-58
2021/04/16 03:46:27;;;;;;;;;;;;;;;;;;5047155;28;19908;-58
2021/04/16 03:48:53;;;;;;;;;;;;;;;;;;5052673;28;19920;-60
2021/04/16 03:51:19;;;;;;;;;;;;;;;;;;5052352;28;20038;-58
2021/04/16 03:53:45;;;;;;;;;;;;;;;;;;5052377;28;19952;-58
2021/04/16 03:56:11;;;;;;;;;;;;;;;;;;5052513;28;19911;-59
2021/04/16 03:58:36;;;;;;;;;;;;;;;;;;5052602;28;19905;-60
2021/04/16 04:01:02;;;;;;;;;;;;;;;;;;5052839;28;19904;-58
2021/04/16 04:03:28;;;;;;;;;;;;;;;;;;5053542;28;19905;-58
2021/04/16 04:05:54;;;;;;;;;;;;;;;;;;5052754;28;19908;-58
2021/04/16 04:08:20;;;;;;;;;;;;;;;;;;5052895;28;20015;-58
2021/04/16 04:10:46;;;;;;;;;;;;;;;;;;5052856;28;19905;-58
2021/04/16 04:13:12;;;;;;;;;;;;;;;;;;5035374;28;19909;-58
2021/04/16 04:15:38;;;;;;;;;;;;;;;;;;5052237;28;19905;-58
2021/04/16 04:18:07;;;;;;;;;;;;;;;;;;5052901;28;19908;-58
2021/04/16 04:20:33;;;;;;;;;;;;;;;;;;5053051;28;20000;-58
2021/04/16 04:22:59;;;;;;;;;;;;;;;;;;5052452;28;20003;-58
2021/04/16 04:25:25;;;;;;;;;;;;;;;;;;5052602;28;20344;-58
2021/04/16 04:27:51;;;;;;;;;;;;;;;;;;5052378;28;19963;-57
2021/04/16 04:30:17;;;;;;;;;;;;;;;;;;5052656;28;20332;-58
2021/04/16 04:32:43;;;;;;;;;;;;;;;;;;5052262;28;19985;-58
2021/04/16 04:35:09;;;;;;;;;;;;;;;;;;5034706;28;20388;-57
2021/04/16 04:37:35;;;;;;;;;;;;;;;;;;5052573;28;20003;-57
2021/04/16 04:40:01;;;;;;;;;;;;;;;;;;5052672;28;19992;-57
2021/04/16 04:42:26;;;;;;;;;;;;;;;;;;5052481;28;19911;-59
2021/04/16 04:44:52;;;;;;;;;;;;;;;;;;5052045;28;19905;-58
2021/04/16 04:47:18;;;;;;;;;;;;;;;;;;5051403;28;19904;-58
2021/04/16 04:49:44;;;;;;;;;;;;;;;;;;5052050;28;20264;-59
2021/04/16 04:52:10;;;;;;;;;;;;;;;;;;5051480;28;19915;-58
2021/04/16 04:54:36;;;;;;;;;;;;;;;;;;5038959;28;19904;-58
2021/04/16 04:57:02;;;;;;;;;;;;;;;;;;5052501;28;20003;-58
2021/04/16 04:59:28;;;;;;;;;;;;;;;;;;5040527;28;19905;-58
2021/04/16 05:01:54;;;;;;;;;;;;;;;;;;5050873;28;19913;-58
2021/04/16 05:04:20;;;;;;;;;;;;;;;;;;5056243;28;19912;-58
2021/04/16 05:06:46;;;;;;;;;;;;;;;;;;5056409;28;20408;-59
2021/04/16 05:09:12;;;;;;;;;;;;;;;;;;5056164;28;19913;-58
2021/04/16 05:11:38;;;;;;;;;;;;;;;;;;5056063;28;19905;-58
2021/04/16 05:14:04;;;;;;;;;;;;;;;;;;5056224;28;19923;-58
2021/04/16 05:16:30;;;;;;;;;;;;;;;;;;5056193;28;19908;-58
2021/04/16 05:18:57;;;;;;;;;;;;;;;;;;5044591;28;19909;-57
2021/04/16 05:21:25;;;;;;;;;;;;;;;;;;5055743;28;19912;-59
2021/04/16 05:23:51;;;;;;;;;;;;;;;;;;5052550;28;20323;-59
2021/04/16 05:26:17;;;;;;;;;;;;;;;;;;5053583;28;20028;-58
2021/04/16 05:28:43;;;;;;;;;;;;;;;;;;5056315;28;20010;-58
2021/04/16 05:31:09;;;;;;;;;;;;;;;;;;5052783;28;19940;-58
2021/04/16 05:33:34;;;;;;;;;;;;;;;;;;5051785;28;19952;-57
2021/04/16 05:36:00;;;;;;;;;;;;;;;;;;5055654;28;20334;-58
2021/04/16 05:38:26;;;;;;;;;;;;;;;;;;5041691;28;19948;-58
2021/04/16 05:40:52;;;;;;;;;;;;;;;;;;5039196;28;20313;-58
2021/04/16 05:43:18;;;;;;;;;;;;;;;;;;5041882;28;19905;-58
2021/04/16 05:45:44;;;;;;;;;;;;;;;;;;5048977;28;19951;-58
2021/04/16 05:48:10;;;;;;;;;;;;;;;;;;5055642;28;19920;-58
2021/04/16 05:50:36;;;;;;;;;;;;;;;;;;5059815;28;19917;-59
2021/04/16 05:53:03;;;;;;;;;;;;;;;;;;5055964;28;20286;-59
2021/04/16 05:55:28;;;;;;;;;;;;;;;;;;5055385;28;19968;-59
2021/04/16 05:57:54;;;;;;;;;;;;;;;;;;5040299;28;19940;-58
2021/04/16 06:00:20;;;;;;;;;;;;;;;;;;5051148;28;19905;-59
2021/04/16 06:02:46;;;;;;;;;;;;;;;;;;5056356;28;19904;-58
2021/04/16 06:05:12;;;;;;;;;;;;;;;;;;5055314;28;19967;-59
2021/04/16 06:07:38;;;;;;;;;;;;;;;;;;5054735;28;19912;-59
2021/04/16 06:10:04;;;;;;;;;;;;;;;;;;5055163;28;19912;-60
2021/04/16 06:12:30;;;;;;;;;;;;;;;;;;5054627;28;19908;-60
2021/04/16 06:14:56;;;;;;;;;;;;;;;;;;5055000;28;19905;-61
2021/04/16 06:17:22;;;;;;;;;;;;;;;;;;5055029;28;19905;-61
2021/04/16 06:19:49;;;;;;;;;;;;;;;;;;5018349;28;19946;-63
2021/04/16 06:22:15;;;;;;;;;;;;;;;;;;5045825;28;19913;-60
2021/04/16 06:24:40;;;;;;;;;;;;;;;;;;5040066;28;20306;-60
2021/04/16 06:27:06;;;;;;;;;;;;;;;;;;5042135;28;19905;-60
2021/04/16 06:29:32;;;;;;;;;;;;;;;;;;5049433;28;19958;-60
2021/04/16 06:31:58;;;;;;;;;;;;;;;;;;5048184;28;19904;-60
2021/04/16 06:34:24;;;;;;;;;;;;;;;;;;5047149;28;19999;-59
2021/04/16 06:36:50;;;;;;;;;;;;;;;;;;5033296;28;19912;-59
2021/04/16 06:39:16;;;;;;;;;;;;;;;;;;5052988;28;19944;-60
2021/04/16 06:41:42;;;;;;;;;;;;;;;;;;5053265;28;19948;-60
2021/04/16 06:44:11;;;;;;;;;;;;;;;;;;5053854;28;19912;-57
2021/04/16 06:46:37;;;;;;;;;;;;;;;;;;5053392;28;19911;-58
2021/04/16 06:49:03;;;;;;;;;;;;;;;;;;5052583;28;19916;-58
2021/04/16 06:51:29;;;;;;;;;;;;;;;;;;5053796;28;19909;-58
2021/04/16 06:53:55;;;;;;;;;;;;;;;;;;5046675;28;19924;-58
2021/04/16 06:56:21;;;;;;;;;;;;;;;;;;5053513;28;19905;-60
2021/04/16 06:58:49;;;;;;;;;;;;;;;;;;5042723;28;19905;-59
2021/04/16 07:01:15;;;;;;;;;;;;;;;;;;5053400;28;19908;-60
2021/04/16 07:03:41;;;;;;;;;;;;;;;;;;5052747;28;19950;-62
2021/04/16 07:06:07;;;;;;;;;;;;;;;;;;5052960;28;19909;-58
2021/04/16 07:08:33;;;;;;;;;;;;;;;;;;5052229;28;20432;-58
2021/04/16 07:10:59;;;;;;;;;;;;;;;;;;5053007;28;19912;-59
2021/04/16 07:13:25;;;;;;;;;;;;;;;;;;5052311;28;19920;-61
2021/04/16 07:15:51;;;;;;;;;;;;;;;;;;5052948;28;19911;-58
2021/04/16 07:18:17;;;;;;;;;;;;;;;;;;5052568;28;20389;-58
2021/04/16 07:20:43;;;;;;;;;;;;;;;;;;5052536;28;20003;-59
2021/04/16 07:23:09;;;;;;;;;;;;;;;;;;5051939;28;20003;-58
2021/04/16 07:25:35;;;;;;;;;;;;;;;;;;5052588;28;19951;-58
2021/04/16 07:28:01;;;;;;;;;;;;;;;;;;5053210;28;19916;-59
2021/04/16 07:30:27;;;;;;;;;;;;;;;;;;5053638;28;19904;-60
2021/04/16 07:32:53;;;;;;;;;;;;;;;;;;5045341;28;19905;-59
2021/04/16 07:35:19;;;;;;;;;;;;;;;;;;5045921;28;19966;-60
2021/04/16 07:37:45;;;;;;;;;;;;;;;;;;5047270;28;20363;-59
2021/04/16 07:40:10;;;;;;;;;;;;;;;;;;5042864;28;19909;-60
2021/04/16 07:42:36;;;;;;;;;;;;;;;;;;5053650;28;19908;-61
2021/04/16 07:45:02;;;;;;;;;;;;;;;;;;5053252;28;19905;-58
2021/04/16 07:47:29;;;;;;;;;;;;;;;;;;5046404;28;20004;-61
2021/04/16 07:49:55;;;;;;;;;;;;;;;;;;5046961;28;19994;-59
2021/04/16 07:52:21;;;;;;;;;;;;;;;;;;5047433;28;20271;-59
2021/04/16 07:54:47;;;;;;;;;;;;;;;;;;5038620;28;19905;-59
2021/04/16 07:57:13;;;;;;;;;;;;;;;;;;5045282;28;19912;-59
2021/04/16 07:59:39;;;;;;;;;;;;;;;;;;5052569;28;20292;-59
2021/04/16 08:02:04;;;;;;;;;;;;;;;;;;5051024;28;19912;-59
2021/04/16 08:04:30;;;;;;;;;;;;;;;;;;5051390;28;19915;-58
2021/04/16 08:06:56;;;;;;;;;;;;;;;;;;5050186;28;19928;-59
2021/04/16 08:09:22;;;;;;;;;;;;;;;;;;5050891;28;19920;-59
2021/04/16 08:11:48;;;;;;;;;;;;;;;;;;5051099;28;20284;-60
2021/04/16 08:14:14;;;;;;;;;;;;;;;;;;5049510;28;20453;-59
2021/04/16 08:16:40;;;;;;;;;;;;;;;;;;5050236;28;19912;-58
2021/04/16 08:19:06;;;;;;;;;;;;;;;;;;5048992;28;19916;-59
2021/04/16 08:21:32;;;;;;;;;;;;;;;;;;5052467;28;19913;-59
2021/04/16 08:23:59;;;;;;;;;;;;;;;;;;5049893;28;19917;-59
2021/04/16 08:26:25;;;;;;;;;;;;;;;;;;5052012;28;19916;-58
2021/04/16 08:28:51;;;;;;;;;;;;;;;;;;5050900;28;19920;-59
2021/04/16 08:31:17;;;;;;;;;;;;;;;;;;5025673;28;19908;-59
2021/04/16 08:33:43;;;;;;;;;;;;;;;;;;5050083;28;19904;-59
2021/04/16 08:36:09;;;;;;;;;;;;;;;;;;5052641;28;19943;-59
2021/04/16 08:38:35;;;;;;;;;;;;;;;;;;5051545;28;19951;-59
2021/04/16 08:41:01;;;;;;;;;;;;;;;;;;5052037;28;19982;-59
2021/04/16 08:43:27;;;;;;;;;;;;;;;;;;5049377;28;19916;-59
2021/04/16 08:45:53;;;;;;;;;;;;;;;;;;5052005;28;20430;-60
2021/04/16 08:48:21;;;;;;;;;;;;;;;;;;5051516;28;20019;-58
2021/04/16 08:50:47;;;;;;;;;;;;;;;;;;5047287;28;19916;-60
2021/04/16 08:53:13;;;;;;;;;;;;;;;;;;5048119;28;19909;-59
2021/04/16 08:55:39;;;;;;;;;;;;;;;;;;5046619;28;19920;-59
2021/04/16 08:58:04;;;;;;;;;;;;;;;;;;5049359;28;20281;-59
2021/04/16 09:00:30;;;;;;;;;;;;;;;;;;5048346;28;19908;-59
2021/04/16 09:02:57;;;;;;;;;;;;;;;;;;5050757;28;19928;-60
2021/04/16 09:05:23;;;;;;;;;;;;;;;;;;5051749;28;20355;-59
2021/04/16 09:07:49;;;;;;;;;;;;;;;;;;5051539;28;19965;-59
2021/04/16 09:10:15;;;;;;;;;;;;;;;;;;5049130;28;19908;-59
2021/04/16 09:12:41;;;;;;;;;;;;;;;;;;5031166;28;19912;-59
2021/04/16 09:15:07;;;;;;;;;;;;;;;;;;5050861;28;19908;-59
2021/04/16 09:17:33;;;;;;;;;;;;;;;;;;5049945;28;19909;-59
2021/04/16 09:19:59;;;;;;;;;;;;;;;;;;5050444;28;19913;-59
2021/04/16 09:22:25;;;;;;;;;;;;;;;;;;5048183;28;19952;-59
2021/04/16 09:24:52;;;;;;;;;;;;;;;;;;5050666;28;19955;-61
2021/04/16 09:27:17;;;;;;;;;;;;;;;;;;5030803;28;19904;-59
2021/04/16 09:29:43;;;;;;;;;;;;;;;;;;5050098;28;20028;-60
2021/04/16 09:32:09;;;;;;;;;;;;;;;;;;5047632;28;19950;-60
2021/04/16 09:34:35;;;;;;;;;;;;;;;;;;5050148;28;19916;-58
2021/04/16 09:37:01;;;;;;;;;;;;;;;;;;5040375;28;19908;-60
2021/04/16 09:39:27;;;;;;;;;;;;;;;;;;5051323;28;19904;-58
2021/04/16 09:41:55;;;;;;;;;;;;;;;;;;5051924;28;19927;-58
2021/04/16 09:44:21;;;;;;;;;;;;;;;;;;5051933;28;19912;-58
2021/04/16 09:46:47;;;;;;;;;;;;;;;;;;5052192;28;20282;-60
2021/04/16 09:49:13;;;;;;;;;;;;;;;;;;5052656;28;19928;-60
2021/04/16 09:51:39;;;;;;;;;;;;;;;;;;5055608;28;19913;-59
2021/04/16 09:54:04;;;;;;;;;;;;;;;;;;5052179;28;19905;-59
2021/04/16 09:56:30;;;;;;;;;;;;;;;;;;5051724;28;19927;-60
2021/04/16 09:58:56;;;;;;;;;;;;;;;;;;5044713;28;20350;-59
2021/04/16 10:01:25;;;;;;;;;;;;;;;;;;5047916;28;20348;-59
2021/04/16 10:03:51;;;;;;;;;;;;;;;;;;5047547;28;19927;-59
2021/04/16 10:06:17;;;;;;;;;;;;;;;;;;5054636;28;19953;-60
2021/04/16 10:08:43;;;;;;;;;;;;;;;;;;5055110;28;19917;-59
2021/04/16 10:11:09;;;;;;;;;;;;;;;;;;5055588;28;19912;-60
2021/04/16 10:13:35;;;;;;;;;;;;;;;;;;5044400;28;19920;-59
2021/04/16 10:16:01;;;;;;;;;;;;;;;;;;5052497;28;19905;-60
2021/04/16 10:18:27;;;;;;;;;;;;;;;;;;5028993;28;20275;-60
2021/04/16 10:20:52;;;;;;;;;;;;;;;;;;5050732;28;19940;-61
2021/04/16 10:23:18;;;;;;;;;;;;;;;;;;5049086;28;20373;-60
2021/04/16 12:39:11;;;;;;;;;;;;;;;;;;5049867;28;19951;-59
2021/04/16 12:41:39;;;;;;;;;;;;;;;;;;5048456;28;19911;-60
2021/04/16 12:44:05;;;;;;;;;;;;;;;;;;5050477;28;19992;-60
2021/04/16 12:46:31;;;;;;;;;;;;;;;;;;5051327;28;20341;-60
2021/04/16 12:48:57;;;;;;;;;;;;;;;;;;5050070;28;20378;-58
2021/04/16 12:51:22;;;;;;;;;;;;;;;;;;5050998;28;20364;-60
2021/04/16 12:53:48;;;;;;;;;;;;;;;;;;5050752;28;19905;-60
2021/04/16 12:56:14;;;;;;;;;;;;;;;;;;5050688;28;19913;-58
2021/04/16 12:58:40;;;;;;;;;;;;;;;;;;5050908;28;19912;-58
2021/04/16 13:01:06;;;;;;;;;;;;;;;;;;5049219;28;20369;-60
2021/04/16 13:03:32;;;;;;;;;;;;;;;;;;5050494;28;19905;-59
2021/04/16 13:05:58;;;;;;;;;;;;;;;;;;5049665;28;19905;-59
2021/04/16 13:08:24;;;;;;;;;;;;;;;;;;5050380;28;19935;-74
2021/04/16 13:10:50;;;;;;;;;;;;;;;;;;5049748;28;19911;-72
2021/04/16 13:13:16;;;;;;;;;;;;;;;;;;5062231;28;19964;-76
2021/04/16 13:15:41;;;;;;;;;;;;;;;;;;5050518;28;19958;-75
2021/04/16 13:18:07;;;;;;;;;;;;;;;;;;5050736;28;19908;-73
2021/04/16 13:20:33;;;;;;;;;;;;;;;;;;5052328;28;20359;-74
2021/04/16 13:22:59;;;;;;;;;;;;;;;;;;5053061;28;19913;-75
2021/04/16 13:25:25;;;;;;;;;;;;;;;;;;5055998;28;19908;-76
2021/04/16 13:27:51;;;;;;;;;;;;;;;;;;5055888;28;19912;-74
2021/04/16 13:30:17;;;;;;;;;;;;;;;;;;5056009;28;19904;-75
2021/04/16 13:32:43;;;;;;;;;;;;;;;;;;5056093;28;19922;-75
2021/04/16 13:35:09;;;;;;;;;;;;;;;;;;5052215;28;20316;-75
2021/04/16 13:37:35;;;;;;;;;;;;;;;;;;5027905;28;20370;-76
2021/04/16 13:40:01;;;;;;;;;;;;;;;;;;5055968;28;19947;-75
2021/04/16 13:42:26;;;;;;;;;;;;;;;;;;5050140;28;20363;-71
2021/04/16 13:44:52;;;;;;;;;;;;;;;;;;5037960;28;19944;-72
2021/04/16 13:47:18;;;;;;;;;;;;;;;;;;5038304;28;19905;-75
2021/04/16 13:49:45;;;;;;;;;;;;;;;;;;5034959;28;19928;-73
2021/04/16 13:52:11;;;;;;;;;;;;;;;;;;5035777;28;20253;-73
2021/04/16 13:54:37;;;;;;;;;;;;;;;;;;5039283;28;19939;-68
2021/04/16 13:57:03;;;;;;;;;;;;;;;;;;5049079;28;19904;-70
2021/04/16 13:59:31;;;;;;;;;;;;;;;;;;5050913;28;20275;-70
2021/04/16 14:01:57;;;;;;;;;;;;;;;;;;5043572;28;19913;-70
2021/04/16 14:04:23;;;;;;;;;;;;;;;;;;5038707;28;19915;-67
2021/04/16 14:06:48;;;;;;;;;;;;;;;;;;5054229;28;20278;-71
2021/04/16 14:09:14;;;;;;;;;;;;;;;;;;5053838;28;19912;-70
2021/04/16 14:11:40;;;;;;;;;;;;;;;;;;5051921;28;19908;-70
2021/04/16 14:14:06;;;;;;;;;;;;;;;;;;5053518;28;19904;-69
2021/04/16 14:16:32;;;;;;;;;;;;;;;;;;5049060;28;19905;-69
2021/04/16 14:18:58;;;;;;;;;;;;;;;;;;5051907;28;19912;-68
2021/04/16 14:21:24;;;;;;;;;;;;;;;;;;5049941;28;20271;-70
2021/04/16 14:23:50;;;;;;;;;;;;;;;;;;5054074;28;19913;-67
2021/04/16 14:26:16;;;;;;;;;;;;;;;;;;5052197;28;20373;-69
2021/04/16 14:28:43;;;;;;;;;;;;;;;;;;5045661;28;19916;-69
2021/04/16 14:31:09;;;;;;;;;;;;;;;;;;5054649;28;20063;-66
2021/04/16 14:33:35;;;;;;;;;;;;;;;;;;5038890;28;20027;-70
2021/04/16 14:36:01;;;;;;;;;;;;;;;;;;5038498;28;20350;-67
2021/04/16 14:38:27;;;;;;;;;;;;;;;;;;5040955;28;19912;-69
2021/04/16 14:40:52;;;;;;;;;;;;;;;;;;5029587;28;20270;-70
2021/04/16 14:43:18;;;;;;;;;;;;;;;;;;5042554;28;20366;-70
2021/04/16 14:45:45;;;;;;;;;;;;;;;;;;5037934;28;19905;-69
2021/04/16 14:48:11;;;;;;;;;;;;;;;;;;5040652;28;19921;-69
2021/04/16 14:50:37;;;;;;;;;;;;;;;;;;5037742;28;20359;-69
2021/04/16 14:53:03;;;;;;;;;;;;;;;;;;5038613;28;19913;-69
2021/04/16 14:55:29;;;;;;;;;;;;;;;;;;5036887;28;19905;-69
2021/04/16 14:57:55;;;;;;;;;;;;;;;;;;5034665;28;20292;-69
2021/04/16 15:00:21;;;;;;;;;;;;;;;;;;5034268;28;19956;-68
2021/04/16 15:02:47;;;;;;;;;;;;;;;;;;5034803;28;19967;-67
2021/04/16 15:05:13;;;;;;;;;;;;;;;;;;5034312;28;20371;-68
2021/04/16 15:07:38;;;;;;;;;;;;;;;;;;5048296;28;19947;-70
2021/04/16 15:10:05;;;;;;;;;;;;;;;;;;5034596;28;19905;-69
2021/04/16 15:12:31;;;;;;;;;;;;;;;;;;5033917;28;19936;-68
2021/04/16 15:14:57;;;;;;;;;;;;;;;;;;5034031;28;19905;-70
2021/04/16 15:17:23;;;;;;;;;;;;;;;;;;5037491;28;19928;-71
2021/04/16 15:19:49;;;;;;;;;;;;;;;;;;5046447;28;20301;-70
2021/04/16 15:22:15;;;;;;;;;;;;;;;;;;5053513;28;19915;-71
2021/04/16 15:24:40;;;;;;;;;;;;;;;;;;5030021;28;20271;-70
2021/04/16 15:27:06;;;;;;;;;;;;;;;;;;5049571;28;19905;-70
2021/04/16 15:29:32;;;;;;;;;;;;;;;;;;5041000;28;19996;-70
2021/04/16 15:31:58;;;;;;;;;;;;;;;;;;5038787;28;19916;-69
2021/04/16 15:47:48;;;;;;;;;;;;;;;;;;5044120;28;19912;-70
2021/04/16 15:50:14;;;;;;;;;;;;;;;;;;5037719;28;19996;-68
2021/04/16 15:52:40;;;;;;;;;;;;;;;;;;5026333;28;19951;-70
2021/04/16 15:55:06;;;;;;;;;;;;;;;;;;5017504;28;20382;-71
2021/04/16 15:57:32;;;;;;;;;;;;;;;;;;5021258;28;20271;-68
2021/04/16 15:59:58;;;;;;;;;;;;;;;;;;5042132;28;19912;-70
2021/04/16 16:02:24;;;;;;;;;;;;;;;;;;5032646;28;19928;-69
2021/04/16 16:04:50;;;;;;;;;;;;;;;;;;5015597;28;20248;-69
2021/04/16 16:07:16;;;;;;;;;;;;;;;;;;5046817;28;19916;-67
2021/04/16 16:09:42;;;;;;;;;;;;;;;;;;5033143;28;19916;-69
2021/04/16 16:12:09;;;;;;;;;;;;;;;;;;5032791;28;19916;-68
2021/04/16 16:14:35;;;;;;;;;;;;;;;;;;5047124;28;19962;-68
2021/04/16 16:17:01;;;;;;;;;;;;;;;;;;5015186;28;20000;-69
2021/04/16 16:19:27;;;;;;;;;;;;;;;;;;5032666;28;19909;-67
2021/04/16 16:21:53;;;;;;;;;;;;;;;;;;5032597;28;19909;-67
2021/04/16 16:24:19;;;;;;;;;;;;;;;;;;5032313;28;19978;-67
2021/04/16 16:26:45;;;;;;;;;;;;;;;;;;5033034;28;19912;-67
2021/04/16 16:29:11;;;;;;;;;;;;;;;;;;5032468;28;19921;-64
2021/04/16 16:31:37;;;;;;;;;;;;;;;;;;5038682;28;19905;-67
2021/04/16 16:34:03;;;;;;;;;;;;;;;;;;5034508;28;19905;-68
2021/04/16 16:36:29;;;;;;;;;;;;;;;;;;5034401;28;20012;-69
2021/04/16 16:38:55;;;;;;;;;;;;;;;;;;5032417;28;20007;-68
2021/04/16 16:41:21;;;;;;;;;;;;;;;;;;5054601;23;19963;-67
2021/04/16 16:43:46;;;;;;;;;;;;;;;;;;5053733;28;19912;-67
2021/04/16 16:46:12;;;;;;;;;;;;;;;;;;5053268;28;19958;-68
2021/04/16 16:48:38;;;;;;;;;;;;;;;;;;5040802;28;19916;-68
2021/04/16 16:51:04;;;;;;;;;;;;;;;;;;5051325;28;20424;-68
2021/04/16 16:53:30;;;;;;;;;;;;;;;;;;5052712;28;19966;-68
2021/04/16 16:55:56;;;;;;;;;;;;;;;;;;5067031;28;19909;-69
2021/04/16 16:58:22;;;;;;;;;;;;;;;;;;5052996;28;19948;-69
2021/04/16 17:00:48;;;;;;;;;;;;;;;;;;5053360;28;19908;-67
2021/04/16 17:03:14;;;;;;;;;;;;;;;;;;5056834;28;19913;-72
2021/04/16 17:05:40;;;;;;;;;;;;;;;;;;5058954;28;20394;-69
2021/04/16 17:08:06;;;;;;;;;;;;;;;;;;5054660;28;19952;-70
2021/04/16 17:10:32;;;;;;;;;;;;;;;;;;5033526;28;19917;-67
2021/04/16 17:12:58;;;;;;;;;;;;;;;;;;5038057;28;19905;-68
2021/04/16 17:15:24;;;;;;;;;;;;;;;;;;5051823;28;20255;-69
2021/04/16 17:17:50;;;;;;;;;;;;;;;;;;5040346;28;19905;-67
2021/04/16 17:20:15;;;;;;;;;;;;;;;;;;5054534;28;20291;-69
2021/04/16 17:22:41;;;;;;;;;;;;;;;;;;5053844;28;20278;-69
2021/04/16 17:25:07;;;;;;;;;;;;;;;;;;5051373;28;19913;-69
2021/04/16 17:27:33;;;;;;;;;;;;;;;;;;5051362;28;19912;-70
2021/04/16 17:29:59;;;;;;;;;;;;;;;;;;5054134;28;19908;-71
2021/04/16 17:32:25;;;;;;;;;;;;;;;;;;5052847;28;19905;-66
2021/04/16 17:34:51;;;;;;;;;;;;;;;;;;5052609;28;19999;-66
2021/04/16 17:37:17;;;;;;;;;;;;;;;;;;5039417;28;19913;-68
2021/04/16 17:39:43;;;;;;;;;;;;;;;;;;5032213;28;20278;-67
2021/04/16 17:42:09;;;;;;;;;;;;;;;;;;5042616;28;19992;-63
2021/04/16 17:44:35;;;;;;;;;;;;;;;;;;5035716;28;20032;-64
2021/04/16 17:47:01;;;;;;;;;;;;;;;;;;5084351;23;20439;-65
2021/04/16 17:49:28;;;;;;;;;;;;;;;;;;5064239;28;19924;-66
2021/04/16 17:51:54;;;;;;;;;;;;;;;;;;5065856;28;19904;-66
2021/04/16 17:54:20;;;;;;;;;;;;;;;;;;5049442;28;19970;-67
2021/04/16 17:56:46;;;;;;;;;;;;;;;;;;5050587;28;20015;-66
2021/04/16 17:59:12;;;;;;;;;;;;;;;;;;5051315;28;19967;-65
2021/04/16 18:01:38;;;;;;;;;;;;;;;;;;5044186;28;19918;-74
2021/04/16 18:04:04;;;;;;;;;;;;;;;;;;5047710;28;19913;-62
2021/04/16 18:06:29;;;;;;;;;;;;;;;;;;5052003;28;20316;-63
2021/04/16 18:08:59;;;;;;;;;;;;;;;;;;5051351;28;19916;-62
2021/04/16 18:11:25;;;;;;;;;;;;;;;;;;5053648;28;19904;-62
2021/04/16 18:13:51;;;;;;;;;;;;;;;;;;5054223;28;19920;-61
2021/04/16 18:16:17;;;;;;;;;;;;;;;;;;5044314;28;20309;-62
2021/04/16 18:18:43;;;;;;;;;;;;;;;;;;5048949;28;19913;-60
2021/04/16 18:21:09;;;;;;;;;;;;;;;;;;5047077;28;19949;-62
2021/04/16 18:23:35;;;;;;;;;;;;;;;;;;5055231;28;19982;-62
2021/04/16 18:26:00;;;;;;;;;;;;;;;;;;5153984;23;19929;-59
2021/04/16 18:28:26;;;;;;;;;;;;;;;;;;5026276;28;19925;-65
2021/04/16 18:30:52;;;;;;;;;;;;;;;;;;5034041;28;19912;-63
2021/04/16 18:33:18;;;;;;;;;;;;;;;;;;5034914;28;19916;-63
2021/04/16 18:35:44;;;;;;;;;;;;;;;;;;5034372;28;19909;-62
2021/04/16 18:38:10;;;;;;;;;;;;;;;;;;5035114;28;19916;-60
2021/04/16 18:40:36;;;;;;;;;;;;;;;;;;5034700;28;19911;-60
2021/04/16 18:43:02;;;;;;;;;;;;;;;;;;5034923;28;20328;-63
2021/04/16 18:45:28;;;;;;;;;;;;;;;;;;5034548;28;19911;-62
2021/04/16 18:47:54;;;;;;;;;;;;;;;;;;5034215;28;19905;-62
2021/04/16 18:50:20;;;;;;;;;;;;;;;;;;5034989;28;20022;-63
2021/04/16 18:52:46;;;;;;;;;;;;;;;;;;5034571;28;19959;-64
2021/04/16 18:55:12;;;;;;;;;;;;;;;;;;5076950;23;19921;-64
2021/04/16 18:57:38;;;;;;;;;;;;;;;;;;5063560;28;19905;-61
2021/04/16 19:00:04;;;;;;;;;;;;;;;;;;5048811;28;19904;-67
2021/04/16 19:02:30;;;;;;;;;;;;;;;;;;5066628;28;19905;-64